createdAt,value
2022-09-07T00:06:37.121Z,19.70
2022-09-07T00:09:32.150Z,19.70
2022-09-07T00:12:28.867Z,19.60
2022-09-07T00:15:18.294Z,19.30
2022-09-07T00:18:14.938Z,19.50
2022-09-07T00:21:11.211Z,19.50
2022-09-07T00:23:59.767Z,19.60
2022-09-07T00:26:50.172Z,19.60
2022-09-07T00:29:49.468Z,19.40
2022-09-07T00:32:43.666Z,19.30
2022-09-07T00:35:43.379Z,19.10
2022-09-07T00:38:31.836Z,19.00
2022-09-07T00:41:21.796Z,19.00
2022-09-07T00:44:43.657Z,19.10
2022-09-07T00:47:54.324Z,19.30
2022-09-07T00:50:56.550Z,19.30
2022-09-07T00:53:54.040Z,19.20
2022-09-07T00:56:46.448Z,18.80
2022-09-07T00:59:42.660Z,18.80
2022-09-07T01:02:30.580Z,18.60
2022-09-07T01:06:00.430Z,18.30
2022-09-07T01:08:50.108Z,18.30
2022-09-07T01:11:39.108Z,18.30
2022-09-07T01:14:43.746Z,18.40
2022-09-07T01:17:49.656Z,18.40
2022-09-07T01:21:03.966Z,18.70
2022-09-07T01:24:07.011Z,18.70
2022-09-07T01:27:26.088Z,18.40
2022-09-07T01:30:19.825Z,18.40
2022-09-07T01:33:38.150Z,18.40
2022-09-07T01:36:54.584Z,18.20
2022-09-07T01:40:29.224Z,18.20
2022-09-07T01:43:41.537Z,18.30
2022-09-07T01:46:53.043Z,18.30
2022-09-07T01:49:52.333Z,18.20
2022-09-07T01:53:02.439Z,18.20
2022-09-07T01:55:59.018Z,18.30
2022-09-07T01:58:54.914Z,18.30
2022-09-07T02:01:53.032Z,18.50
2022-09-07T02:04:55.668Z,18.50
2022-09-07T02:07:48.532Z,18.50
2022-09-07T02:10:45.546Z,18.40
2022-09-07T02:13:42.340Z,18.30
2022-09-07T02:16:31.447Z,18.30
2022-09-07T02:19:21.382Z,18.40
2022-09-07T02:22:14.633Z,18.40
2022-09-07T02:25:12.208Z,18.60
2022-09-07T02:28:08.821Z,18.60
2022-09-07T02:30:56.494Z,18.70
2022-09-07T02:33:44.389Z,18.50
2022-09-07T02:36:41.748Z,18.60
2022-09-07T02:39:31.515Z,18.70
2022-09-07T02:42:24.116Z,18.60
2022-09-07T02:45:13.766Z,18.60
2022-09-07T02:48:13.328Z,18.80
2022-09-07T02:51:16.910Z,18.80
2022-09-07T02:54:16.369Z,18.80
2022-09-07T02:57:36.731Z,18.80
2022-09-07T03:00:33.776Z,18.80
2022-09-07T03:03:34.448Z,18.90
2022-09-07T03:06:43.487Z,18.90
2022-09-07T03:09:39.596Z,18.80
2022-09-07T03:12:45.145Z,18.80
2022-09-07T03:15:34.971Z,18.80
2022-09-07T03:18:23.596Z,18.80
2022-09-07T03:21:16.640Z,18.80
2022-09-07T03:24:07.256Z,18.70
2022-09-07T03:26:58.752Z,18.60
2022-09-07T03:29:50.916Z,18.70
2022-09-07T03:32:41.826Z,18.70
2022-09-07T03:35:33.533Z,18.60
2022-09-07T03:41:09.992Z,18.60
2022-09-07T03:44:02.147Z,18.50
2022-09-07T03:46:49.743Z,18.50
2022-09-07T03:49:37.276Z,18.60
2022-09-07T03:52:24.806Z,18.60
2022-09-07T03:55:12.455Z,18.60
2022-09-07T04:04:05.620Z,18.60
2022-09-07T04:06:53.512Z,18.40
2022-09-07T04:18:56.318Z,18.40
2022-09-07T04:21:46.207Z,18.40
2022-09-07T04:24:33.902Z,18.50
2022-09-07T04:27:21.385Z,18.40
2022-09-07T04:30:10.237Z,18.40
2022-09-07T04:32:57.686Z,18.50
2022-09-07T04:35:44.904Z,18.30
2022-09-07T04:38:32.696Z,18.30
2022-09-07T04:41:20.205Z,18.40
2022-09-07T04:44:07.902Z,18.40
2022-09-07T04:46:55.578Z,18.30
2022-09-07T04:50:15.117Z,18.20
2022-09-07T04:53:02.276Z,18.30
2022-09-07T04:55:49.598Z,18.40
2022-09-07T04:58:38.793Z,18.30
2022-09-07T05:01:26.416Z,18.10
2022-09-07T05:04:13.727Z,18.00
2022-09-07T05:07:01.409Z,18.10
2022-09-07T05:09:48.670Z,18.00
2022-09-07T05:12:39.383Z,18.00
2022-09-07T05:15:29.991Z,18.00
2022-09-07T05:18:18.356Z,18.10
2022-09-07T05:21:14.094Z,18.50
2022-09-07T05:24:01.579Z,19.80
2022-09-07T05:26:49.584Z,19.90
2022-09-07T05:32:47.917Z,20.30
2022-09-07T05:35:35.324Z,19.90
2022-09-07T05:38:22.744Z,19.30
2022-09-07T05:41:20.039Z,19.70
2022-09-07T05:47:16.120Z,19.80
2022-09-07T05:50:05.118Z,20.20
2022-09-07T05:52:52.717Z,20.40
2022-09-07T05:55:39.869Z,20.30
2022-09-07T05:58:28.722Z,20.40
2022-09-07T06:04:21.848Z,20.20
2022-09-07T06:20:18.126Z,20.10
2022-09-07T06:23:07.355Z,20.10
2022-09-07T06:26:03.050Z,20.10
2022-09-07T06:28:52.849Z,19.80
2022-09-07T06:34:50.056Z,19.90
2022-09-07T06:37:40.360Z,19.60
2022-09-07T06:43:36.568Z,20.20
2022-09-07T06:49:33.028Z,19.90
2022-09-07T06:55:45.686Z,20.30
2022-09-07T06:58:33.650Z,20.10
2022-09-07T07:01:21.798Z,20.10
2022-09-07T07:04:09.142Z,20.30
2022-09-07T07:06:56.769Z,20.00
2022-09-07T07:09:44.456Z,19.70
2022-09-07T07:15:19.217Z,20.40
2022-09-07T07:30:22.714Z,20.10
2022-09-07T07:33:48.340Z,19.70
2022-09-07T07:51:16.236Z,20.40
2022-09-07T07:54:04.067Z,20.20
2022-09-07T07:56:51.637Z,20.50
2022-09-07T08:02:57.889Z,20.40
2022-09-07T08:05:45.777Z,20.30
2022-09-07T08:08:33.856Z,20.40
2022-09-07T08:11:21.999Z,20.50
2022-09-07T08:14:09.534Z,20.90
2022-09-07T08:16:56.654Z,21.20
2022-09-07T08:19:44.260Z,20.70
2022-09-07T08:22:34.878Z,20.60
2022-09-07T08:25:22.493Z,20.80
2022-09-07T08:46:57.591Z,22.00
2022-09-07T08:53:36.225Z,21.60
2022-09-07T09:02:26.828Z,22.30
2022-09-07T09:05:19.865Z,22.80
2022-09-07T09:08:32.077Z,23.00
2022-09-07T09:12:14.294Z,22.30
2022-09-07T09:15:27.760Z,22.30
2022-09-07T09:18:37.027Z,22.40
2022-09-07T09:21:30.989Z,22.80
2022-09-07T09:24:25.264Z,22.70
2022-09-07T09:27:15.928Z,22.50
2022-09-07T09:30:22.631Z,22.90
2022-09-07T09:33:24.825Z,23.10
2022-09-07T09:36:32.967Z,23.10
2022-09-07T09:39:38.657Z,22.30
2022-09-07T09:42:35.026Z,22.40
2022-09-07T09:48:40.018Z,22.20
2022-09-07T09:54:51.967Z,22.90
2022-09-07T10:01:35.444Z,23.50
2022-09-07T10:04:32.834Z,23.40
2022-09-07T10:08:05.533Z,22.60
2022-09-07T10:12:05.143Z,22.80
2022-09-07T10:15:09.026Z,22.30
2022-09-07T10:18:08.859Z,22.50
2022-09-07T10:21:59.771Z,22.30
2022-09-07T10:25:25.914Z,23.20
2022-09-07T10:38:40.237Z,23.30
2022-09-07T10:41:45.653Z,23.30
2022-09-07T10:44:41.428Z,23.20
2022-09-07T10:48:03.143Z,23.90
2022-09-07T10:51:09.822Z,23.80
2022-09-07T10:54:32.695Z,23.40
2022-09-07T10:57:33.647Z,23.10
2022-09-07T11:00:22.776Z,23.70
2022-09-07T11:03:26.956Z,24.20
2022-09-07T11:19:36.460Z,23.50
2022-09-07T11:22:31.807Z,23.00
2022-09-07T11:25:46.652Z,23.00
2022-09-07T11:32:10.017Z,23.60
2022-09-07T11:35:05.273Z,22.90
2022-09-07T11:37:59.277Z,22.80
2022-09-07T11:44:03.190Z,23.40
2022-09-07T11:53:26.925Z,23.40
2022-09-07T11:56:21.932Z,23.30
2022-09-07T11:59:36.673Z,23.60
2022-09-07T12:02:58.315Z,24.30
2022-09-07T12:06:20.470Z,24.10
2022-09-07T12:09:16.877Z,23.70
2022-09-07T12:12:28.667Z,23.40
2022-09-07T12:15:58.001Z,23.20
2022-09-07T12:19:10.299Z,23.40
2022-09-07T12:21:59.746Z,23.70
2022-09-07T12:24:53.609Z,24.50
2022-09-07T12:27:41.870Z,25.10
2022-09-07T12:30:30.842Z,25.50
2022-09-07T12:33:25.122Z,25.40
2022-09-07T12:36:28.704Z,25.50
2022-09-07T12:39:25.282Z,25.50
2022-09-07T12:45:29.749Z,25.60
2022-09-07T12:48:17.084Z,25.40
2022-09-07T12:51:59.018Z,25.10
2022-09-07T12:55:09.922Z,25.00
2022-09-07T12:58:13.151Z,25.10
2022-09-07T13:01:13.711Z,25.10
2022-09-07T13:04:28.879Z,25.20
2022-09-07T13:07:31.368Z,25.30
2022-09-07T13:10:31.886Z,25.30
2022-09-07T13:19:51.381Z,25.90
2022-09-07T13:22:38.885Z,25.90
2022-09-07T13:25:27.218Z,25.70
2022-09-07T13:28:20.756Z,26.10
2022-09-07T13:31:16.872Z,24.90
2022-09-07T13:34:39.654Z,24.50
2022-09-07T13:44:04.180Z,26.00
2022-09-07T13:46:54.825Z,25.60
2022-09-07T13:49:45.189Z,25.70
2022-09-07T13:52:47.177Z,25.90
2022-09-07T13:56:01.147Z,25.50
2022-09-07T13:58:52.851Z,26.10
2022-09-07T14:01:45.918Z,25.80
2022-09-07T14:04:37.477Z,25.20
2022-09-07T14:07:28.067Z,25.20
2022-09-07T14:10:21.706Z,25.80
2022-09-07T14:13:12.653Z,25.80
2022-09-07T14:16:00.232Z,26.10
2022-09-07T14:18:48.015Z,26.20
2022-09-07T14:21:35.317Z,26.10
2022-09-07T14:24:49.404Z,25.80
2022-09-07T14:27:40.610Z,25.00
2022-09-07T14:30:33.521Z,24.90
2022-09-07T14:33:22.663Z,24.90
2022-09-07T14:36:29.851Z,24.70
2022-09-07T14:39:21.039Z,25.20
2022-09-07T14:42:12.220Z,25.00
2022-09-07T14:45:28.401Z,24.90
2022-09-07T14:48:26.446Z,25.00
2022-09-07T14:51:34.726Z,25.00
2022-09-07T14:54:33.004Z,24.70
2022-09-07T14:57:32.276Z,24.80
2022-09-07T15:00:31.143Z,24.70
2022-09-07T15:03:33.812Z,24.90
2022-09-07T15:09:39.829Z,24.30
2022-09-07T15:12:38.321Z,24.50
2022-09-07T15:15:31.846Z,24.30
2022-09-07T15:18:55.666Z,24.70
2022-09-07T15:21:45.921Z,25.00
2022-09-07T15:24:33.553Z,24.30
2022-09-07T15:27:27.597Z,24.20
2022-09-07T15:30:17.611Z,24.00
2022-09-07T15:33:06.209Z,24.00
2022-09-07T15:35:53.749Z,24.00
2022-09-07T15:41:51.455Z,23.90
2022-09-07T15:44:38.739Z,23.90
2022-09-07T15:50:33.629Z,24.00
2022-09-07T15:56:29.484Z,23.60
2022-09-07T15:59:16.590Z,23.60
2022-09-07T16:03:04.552Z,23.40
2022-09-07T16:05:12.145Z,23.50
2022-09-07T16:11:18.505Z,23.60
2022-09-07T16:14:06.510Z,23.40
2022-09-07T16:20:06.012Z,23.60
2022-09-07T16:26:04.205Z,23.40
2022-09-07T16:28:53.283Z,23.70
2022-09-07T16:32:44.090Z,23.60
2022-09-07T16:34:48.265Z,23.40
2022-09-07T16:37:36.180Z,23.60
2022-09-07T16:40:23.351Z,23.40
2022-09-07T16:43:10.847Z,23.70
2022-09-07T16:46:06.187Z,23.50
2022-09-07T16:48:54.496Z,23.30
2022-09-07T16:51:42.261Z,23.10
2022-09-07T16:54:29.422Z,23.20
2022-09-07T16:57:17.747Z,23.20
2022-09-07T17:00:05.809Z,23.00
2022-09-07T17:02:53.370Z,23.10
2022-09-07T17:05:41.248Z,23.00
2022-09-07T17:08:29.665Z,23.20
2022-09-07T17:11:26.003Z,23.10
2022-09-07T17:14:13.600Z,23.10
2022-09-07T17:17:01.554Z,23.20
2022-09-07T17:19:49.529Z,23.00
2022-09-07T17:22:36.761Z,23.00
2022-09-07T17:25:23.984Z,22.90
2022-09-07T17:28:11.783Z,22.90
2022-09-07T17:34:27.980Z,22.90
2022-09-07T17:37:15.237Z,22.90
2022-09-07T17:40:05.730Z,22.80
2022-09-07T17:46:06.415Z,22.80
2022-09-07T17:48:56.692Z,22.70
2022-09-07T17:51:45.433Z,22.70
2022-09-07T17:54:33.026Z,22.60
2022-09-07T17:57:20.351Z,22.50
2022-09-07T18:00:11.163Z,22.50
2022-09-07T18:02:59.857Z,22.40
2022-09-07T18:05:47.264Z,22.30
2022-09-07T18:08:35.964Z,22.30
2022-09-07T18:14:31.370Z,22.20
2022-09-07T18:17:18.458Z,22.10
2022-09-07T18:20:06.686Z,22.20
2022-09-07T18:22:54.213Z,22.10
2022-09-07T18:25:41.728Z,22.00
2022-09-07T18:31:36.847Z,21.90
2022-09-07T18:34:24.493Z,22.00
2022-09-07T18:37:12.216Z,22.00
2022-09-07T18:40:00.002Z,21.80
2022-09-07T18:42:48.143Z,21.80
2022-09-07T18:45:35.676Z,21.70
2022-09-07T18:48:23.233Z,21.60
2022-09-07T18:51:11.385Z,21.80
2022-09-07T18:53:58.870Z,21.80
2022-09-07T18:56:46.642Z,22.10
2022-09-07T18:59:33.834Z,21.90
2022-09-07T19:02:22.192Z,21.90
2022-09-07T19:08:17.989Z,21.80
2022-09-07T19:11:06.039Z,21.70
2022-09-07T19:14:03.378Z,21.40
2022-09-07T19:16:51.725Z,21.40
2022-09-07T19:19:39.985Z,21.30
2022-09-07T19:22:27.496Z,21.40
2022-09-07T19:25:15.591Z,21.30
2022-09-07T19:28:03.197Z,21.20
2022-09-07T19:30:50.712Z,21.00
2022-09-07T19:33:38.247Z,21.00
2022-09-07T19:36:33.419Z,21.00
2022-09-07T19:39:21.062Z,21.00
2022-09-07T19:42:08.423Z,21.00
2022-09-07T19:44:55.632Z,20.90
2022-09-07T19:47:43.229Z,21.00
2022-09-07T19:50:31.360Z,20.90
2022-09-07T19:53:19.475Z,20.90
2022-09-07T19:56:08.643Z,21.00
2022-09-07T19:58:56.171Z,20.90
2022-09-07T20:01:46.342Z,20.90
2022-09-07T20:04:34.147Z,21.00
2022-09-07T20:07:21.742Z,21.00
2022-09-07T20:10:09.774Z,21.10
2022-09-07T20:12:57.274Z,21.10
2022-09-07T20:15:44.827Z,21.00
2022-09-07T20:18:34.334Z,20.90
2022-09-07T20:21:23.527Z,20.90
2022-09-07T20:24:12.558Z,20.80
2022-09-07T20:27:02.623Z,20.90
2022-09-07T20:29:51.496Z,20.90
2022-09-07T20:32:39.113Z,20.80
2022-09-07T20:35:26.557Z,20.90
2022-09-07T20:38:15.425Z,20.90
2022-09-07T20:41:02.532Z,20.90
2022-09-07T20:43:50.893Z,21.00
2022-09-07T20:46:38.198Z,20.90
2022-09-07T20:49:25.287Z,20.90
2022-09-07T20:52:12.935Z,20.80
2022-09-07T20:55:00.036Z,20.90
2022-09-07T20:57:47.636Z,21.00
2022-09-07T21:00:38.238Z,21.00
2022-09-07T21:03:26.234Z,21.00
2022-09-07T21:06:13.826Z,21.00
2022-09-07T21:09:01.704Z,21.00
2022-09-07T21:11:52.094Z,21.10
2022-09-07T21:14:41.480Z,21.10
2022-09-07T21:17:28.692Z,21.10
2022-09-07T21:20:16.322Z,21.10
2022-09-07T21:23:03.753Z,21.10
2022-09-07T21:25:51.920Z,21.10
2022-09-07T21:28:39.202Z,21.10
2022-09-07T21:31:27.089Z,21.10
2022-09-07T21:34:15.368Z,21.10
2022-09-07T21:37:07.136Z,21.10
2022-09-07T21:39:54.943Z,21.00
2022-09-07T21:42:42.554Z,20.90
2022-09-07T21:45:31.506Z,20.90
2022-09-07T21:48:19.004Z,20.70
2022-09-07T21:51:06.948Z,20.60
2022-09-07T21:53:55.699Z,20.50
2022-09-07T21:56:46.546Z,20.50
2022-09-07T21:59:34.690Z,20.50
2022-09-07T22:02:22.448Z,20.60
2022-09-07T22:05:10.269Z,20.50
2022-09-07T22:07:57.708Z,20.50
2022-09-07T22:10:49.204Z,20.50
2022-09-07T22:13:36.905Z,20.30
2022-09-07T22:16:24.789Z,20.20
2022-09-07T22:19:12.155Z,20.20
2022-09-07T22:22:01.375Z,20.30
2022-09-07T22:24:49.151Z,20.30
2022-09-07T22:27:36.745Z,20.20
2022-09-07T22:30:25.586Z,20.20
2022-09-07T22:33:24.444Z,20.10
2022-09-07T22:36:20.642Z,20.10
2022-09-07T22:39:21.119Z,20.10
2022-09-07T22:42:18.825Z,20.10
2022-09-07T22:45:26.414Z,20.00
2022-09-07T22:48:13.865Z,20.00
2022-09-07T22:51:02.859Z,19.90
2022-09-07T22:53:49.977Z,19.80
2022-09-07T22:56:38.342Z,20.00
2022-09-07T22:59:26.014Z,20.00
2022-09-07T23:02:13.500Z,20.00
2022-09-07T23:05:00.962Z,20.00
2022-09-07T23:07:48.801Z,19.90
2022-09-07T23:10:36.769Z,19.80
2022-09-07T23:13:24.252Z,19.80
2022-09-07T23:16:12.231Z,19.80
2022-09-07T23:19:00.611Z,19.80
2022-09-07T23:22:03.210Z,19.80
2022-09-07T23:24:58.147Z,19.80
2022-09-07T23:27:45.450Z,19.80
2022-09-07T23:30:35.648Z,19.80
2022-09-07T23:33:57.822Z,19.80
2022-09-07T23:36:44.988Z,19.80
2022-09-07T23:40:03.005Z,19.90
2022-09-07T23:42:50.212Z,19.90
2022-09-07T23:46:06.246Z,19.90
2022-09-07T23:49:07.540Z,19.90
2022-09-07T23:51:55.048Z,19.90
2022-09-07T23:54:42.770Z,19.80
2022-09-07T23:57:31.716Z,19.80
